BZN26 KBUF-CYMX
Flight info
| Callsign | BZN26 |
|---|---|
| Flight time | N/A |
| Altitude | 17000 |
| Route | GEE V84 SYR/N0461F370 DCT ART DCT CURDS DCT DAVDA DCT EPMOK Q955 MITIG |
| Aircraft | B738/M-SDE2E3FGHIRWXY/LB1 |
Departure
| Time | N/A |
|---|---|
| Airport | Buffalo Niagara International Airport (KBUF) |
Arrival
| Time | 2026-04-17 01:22 |
|---|---|
| Airport | Montreal Mirabel International Airport (CYMX) |
| Time | Latitude | Longitude | Altitude | Speed | Heading |
|---|---|---|---|---|---|
| 2026-04-17 00:49 | 43.78073 | -76.09583 | 16919 ft | 452 kts | 1° |
| 2026-04-17 00:50 | 43.81193 | -76.09024 | 16936 ft | 451 kts | 1° |
| 2026-04-17 00:50 | 43.84307 | -76.08464 | 16939 ft | 451 kts | 1° |
| 2026-04-17 00:50 | 43.87418 | -76.07906 | 16938 ft | 451 kts | 1° |
| 2026-04-17 00:50 | 43.90529 | -76.07350 | 16953 ft | 450 kts | 1° |
| 2026-04-17 00:51 | 43.93619 | -76.06599 | 16925 ft | 456 kts | 9° |
| 2026-04-17 00:51 | 43.96632 | -76.05134 | 16951 ft | 462 kts | 19° |
| 2026-04-17 00:51 | 43.99471 | -76.02990 | 16953 ft | 467 kts | 28° |
| 2026-04-17 00:51 | 44.02209 | -76.00550 | 16949 ft | 468 kts | 29° |
| 2026-04-17 00:52 | 44.04940 | -75.98071 | 16951 ft | 469 kts | 29° |
| 2026-04-17 00:52 | 44.07672 | -75.95589 | 16935 ft | 469 kts | 29° |
| 2026-04-17 00:52 | 44.10412 | -75.93117 | 16903 ft | 469 kts | 28° |
| 2026-04-17 00:52 | 44.13121 | -75.90690 | 16924 ft | 469 kts | 27° |
| 2026-04-17 00:53 | 44.13126 | -75.90685 | 16924 ft | 469 kts | 27° |
| 2026-04-17 00:54 | 44.15075 | -75.88947 | 16928 ft | 470 kts | 27° |
| 2026-04-17 00:54 | 44.17834 | -75.86492 | 16923 ft | 471 kts | 27° |
| 2026-04-17 00:55 | 44.20605 | -75.84027 | 16916 ft | 472 kts | 27° |
| 2026-04-17 00:55 | 44.23373 | -75.81563 | 16913 ft | 473 kts | 27° |
| 2026-04-17 00:55 | 44.26141 | -75.79093 | 16906 ft | 473 kts | 27° |
| 2026-04-17 00:55 | 44.28911 | -75.76619 | 16903 ft | 473 kts | 27° |
| 2026-04-17 00:56 | 44.31680 | -75.74141 | 16890 ft | 473 kts | 27° |
| 2026-04-17 00:56 | 44.34445 | -75.71662 | 16881 ft | 473 kts | 27° |
| 2026-04-17 00:56 | 44.37214 | -75.69176 | 16885 ft | 473 kts | 27° |
| 2026-04-17 00:56 | 44.39975 | -75.66680 | 16890 ft | 473 kts | 27° |
| 2026-04-17 00:57 | 44.42738 | -75.64189 | 16892 ft | 473 kts | 27° |
| 2026-04-17 00:57 | 44.45511 | -75.61700 | 16891 ft | 473 kts | 27° |
| 2026-04-17 00:57 | 44.48273 | -75.59228 | 16897 ft | 472 kts | 27° |
| 2026-04-17 00:57 | 44.51042 | -75.56748 | 16892 ft | 472 kts | 27° |
| 2026-04-17 00:58 | 44.53810 | -75.54268 | 16887 ft | 471 kts | 27° |
| 2026-04-17 00:58 | 44.56561 | -75.51797 | 16890 ft | 470 kts | 27° |
| 2026-04-17 00:58 | 44.59311 | -75.49323 | 16893 ft | 469 kts | 27° |
| 2026-04-17 00:58 | 44.62056 | -75.46850 | 16895 ft | 469 kts | 27° |
| 2026-04-17 00:59 | 44.64803 | -75.44371 | 16920 ft | 469 kts | 27° |
| 2026-04-17 00:59 | 44.67542 | -75.41898 | 16907 ft | 468 kts | 27° |
| 2026-04-17 00:59 | 44.70271 | -75.39429 | 16902 ft | 467 kts | 27° |
| 2026-04-17 00:59 | 44.72896 | -75.36684 | 16891 ft | 473 kts | 36° |
| 2026-04-17 01:00 | 44.75194 | -75.33334 | 16904 ft | 477 kts | 45° |
| 2026-04-17 01:00 | 44.77345 | -75.29783 | 16904 ft | 478 kts | 46° |
| 2026-04-17 01:00 | 44.79491 | -75.26209 | 16896 ft | 478 kts | 45° |
| 2026-04-17 01:00 | 44.81644 | -75.22648 | 16904 ft | 478 kts | 45° |
| 2026-04-17 01:01 | 44.83809 | -75.19100 | 16906 ft | 477 kts | 45° |
| 2026-04-17 01:01 | 44.85982 | -75.15565 | 16901 ft | 477 kts | 45° |
| 2026-04-17 01:01 | 44.88153 | -75.12042 | 16900 ft | 476 kts | 45° |
| 2026-04-17 01:01 | 44.90329 | -75.08513 | 16904 ft | 476 kts | 45° |
| 2026-04-17 01:02 | 44.92496 | -75.04992 | 16896 ft | 476 kts | 45° |
| 2026-04-17 01:02 | 44.94665 | -75.01464 | 16903 ft | 476 kts | 45° |
| 2026-04-17 01:02 | 44.96830 | -74.97935 | 16923 ft | 476 kts | 45° |
| 2026-04-17 01:02 | 44.98926 | -74.94306 | 16925 ft | 479 kts | 51° |
| 2026-04-17 01:03 | 45.00672 | -74.90279 | 16901 ft | 482 kts | 58° |
| 2026-04-17 01:03 | 45.02274 | -74.86117 | 16900 ft | 483 kts | 59° |
| 2026-04-17 01:03 | 45.03867 | -74.81938 | 16888 ft | 483 kts | 59° |
| 2026-04-17 01:03 | 45.05476 | -74.77774 | 16893 ft | 483 kts | 58° |
| 2026-04-17 01:04 | 45.07110 | -74.73616 | 16890 ft | 483 kts | 58° |
| 2026-04-17 01:04 | 45.08743 | -74.69500 | 16779 ft | 474 kts | 57° |
| 2026-04-17 01:04 | 45.10346 | -74.65468 | 16281 ft | 467 kts | 58° |
| 2026-04-17 01:04 | 45.11929 | -74.61480 | 15711 ft | 462 kts | 57° |
| 2026-04-17 01:05 | 45.13541 | -74.57595 | 15287 ft | 453 kts | 55° |
| 2026-04-17 01:05 | 45.15195 | -74.53829 | 14726 ft | 447 kts | 54° |
| 2026-04-17 01:05 | 45.16845 | -74.50116 | 14176 ft | 443 kts | 54° |
| 2026-04-17 01:05 | 45.18463 | -74.46427 | 13621 ft | 439 kts | 55° |
| 2026-04-17 01:06 | 45.20052 | -74.42759 | 13002 ft | 435 kts | 55° |
| 2026-04-17 01:06 | 45.21617 | -74.39131 | 12477 ft | 428 kts | 55° |
| 2026-04-17 01:06 | 45.23166 | -74.35557 | 11943 ft | 423 kts | 55° |
| 2026-04-17 01:06 | 45.24702 | -74.32017 | 11406 ft | 419 kts | 55° |
| 2026-04-17 01:07 | 45.26219 | -74.28520 | 11087 ft | 410 kts | 55° |
| 2026-04-17 01:07 | 45.27685 | -74.25131 | 10921 ft | 397 kts | 55° |
| 2026-04-17 01:07 | 45.29106 | -74.21841 | 10749 ft | 385 kts | 55° |
| 2026-04-17 01:07 | 45.30485 | -74.18645 | 10588 ft | 374 kts | 54° |
| 2026-04-17 01:08 | 45.31825 | -74.15539 | 10431 ft | 364 kts | 54° |
| 2026-04-17 01:08 | 45.33130 | -74.12511 | 10274 ft | 354 kts | 54° |
| 2026-04-17 01:08 | 45.34399 | -74.09562 | 10137 ft | 346 kts | 54° |
| 2026-04-17 01:08 | 45.35640 | -74.06677 | 9991 ft | 337 kts | 54° |
| 2026-04-17 01:09 | 45.37060 | -74.04135 | 9871 ft | 321 kts | 37° |
| 2026-04-17 01:09 | 45.38694 | -74.02091 | 9876 ft | 307 kts | 35° |
| 2026-04-17 01:09 | 45.40284 | -74.00120 | 9356 ft | 314 kts | 36° |
| 2026-04-17 01:09 | 45.41912 | -73.98053 | 9000 ft | 314 kts | 37° |
| 2026-04-17 01:10 | 45.43530 | -73.95965 | 8693 ft | 312 kts | 37° |
| 2026-04-17 01:10 | 45.45111 | -73.93909 | 8378 ft | 303 kts | 37° |
| 2026-04-17 01:10 | 45.46756 | -73.92182 | 8111 ft | 286 kts | 22° |
| 2026-04-17 01:10 | 45.48526 | -73.90958 | 7845 ft | 275 kts | 19° |
| 2026-04-17 01:11 | 45.50235 | -73.89826 | 7580 ft | 266 kts | 19° |
| 2026-04-17 01:11 | 45.51889 | -73.88727 | 7323 ft | 259 kts | 19° |
| 2026-04-17 01:11 | 45.53492 | -73.87651 | 7072 ft | 251 kts | 19° |
| 2026-04-17 01:11 | 45.55063 | -73.86589 | 6825 ft | 249 kts | 20° |
| 2026-04-17 01:12 | 45.56629 | -73.85524 | 6610 ft | 250 kts | 20° |
| 2026-04-17 01:12 | 45.58211 | -73.84443 | 6377 ft | 250 kts | 20° |
| 2026-04-17 01:12 | 45.59722 | -73.83401 | 6120 ft | 239 kts | 20° |
| 2026-04-17 01:12 | 45.61201 | -73.82375 | 5858 ft | 227 kts | 20° |
| 2026-04-17 01:13 | 45.62575 | -73.81423 | 5622 ft | 217 kts | 20° |
| 2026-04-17 01:13 | 45.63904 | -73.80504 | 5406 ft | 209 kts | 20° |
| 2026-04-17 01:13 | 45.65208 | -73.79608 | 5208 ft | 207 kts | 19° |
| 2026-04-17 01:13 | 45.66502 | -73.78720 | 5007 ft | 206 kts | 20° |
| 2026-04-17 01:14 | 45.67787 | -73.77832 | 4863 ft | 203 kts | 21° |
| 2026-04-17 01:14 | 45.69063 | -73.76944 | 4794 ft | 207 kts | 20° |
| 2026-04-17 01:14 | 45.70370 | -73.76040 | 4705 ft | 211 kts | 20° |
| 2026-04-17 01:14 | 45.71687 | -73.75122 | 4607 ft | 210 kts | 21° |
| 2026-04-17 01:15 | 45.72999 | -73.74207 | 4505 ft | 209 kts | 21° |
| 2026-04-17 01:15 | 45.74304 | -73.73299 | 4401 ft | 208 kts | 21° |
| 2026-04-17 01:15 | 45.75640 | -73.72459 | 4182 ft | 210 kts | 8° |
| 2026-04-17 01:15 | 45.77024 | -73.72662 | 3966 ft | 199 kts | 327° |
| 2026-04-17 01:16 | 45.78077 | -73.73875 | 3800 ft | 193 kts | 314° |
| 2026-04-17 01:16 | 45.79029 | -73.75222 | 3576 ft | 191 kts | 313° |
| 2026-04-17 01:16 | 45.79964 | -73.76563 | 3379 ft | 189 kts | 313° |
| 2026-04-17 01:16 | 45.80885 | -73.77910 | 3179 ft | 190 kts | 309° |
| 2026-04-17 01:17 | 45.81340 | -73.79664 | 2973 ft | 196 kts | 265° |
| 2026-04-17 01:17 | 45.80804 | -73.81483 | 2805 ft | 205 kts | 239° |
| 2026-04-17 01:17 | 45.79995 | -73.83148 | 2565 ft | 200 kts | 236° |
| 2026-04-17 01:17 | 45.79180 | -73.84662 | 2433 ft | 182 kts | 234° |
| 2026-04-17 01:18 | 45.78380 | -73.85944 | 2289 ft | 165 kts | 230° |
| 2026-04-17 01:18 | 45.77601 | -73.87089 | 2182 ft | 152 kts | 230° |
| 2026-04-17 01:18 | 45.76859 | -73.88154 | 2004 ft | 151 kts | 230° |
| 2026-04-17 01:18 | 45.76126 | -73.89200 | 1858 ft | 147 kts | 231° |
| 2026-04-17 01:19 | 45.75403 | -73.90240 | 1723 ft | 148 kts | 231° |
| 2026-04-17 01:19 | 45.74670 | -73.91289 | 1597 ft | 149 kts | 231° |
| 2026-04-17 01:19 | 45.73947 | -73.92357 | 1399 ft | 149 kts | 231° |
| 2026-04-17 01:19 | 45.73207 | -73.93387 | 1213 ft | 148 kts | 229° |
| 2026-04-17 01:20 | 45.72475 | -73.94409 | 1061 ft | 146 kts | 227° |
| 2026-04-17 01:20 | 45.71749 | -73.95419 | 991 ft | 141 kts | 229° |
| 2026-04-17 01:20 | 45.71082 | -73.96413 | 717 ft | 137 kts | 230° |
| 2026-04-17 01:20 | 45.70403 | -73.97393 | 616 ft | 141 kts | 227° |
| 2026-04-17 01:21 | 45.69722 | -73.98383 | 408 ft | 137 kts | 226° |
| 2026-04-17 01:21 | 45.69065 | -73.99293 | 261 ft | 122 kts | 225° |
| 2026-04-17 01:21 | 45.68523 | -74.00069 | 262 ft | 94 kts | 225° |
| 2026-04-17 01:21 | 45.68176 | -74.00626 | 263 ft | 67 kts | 246° |
| 2026-04-17 01:22 | 45.68078 | -74.01022 | 266 ft | 28 kts | 250° |
| 2026-04-17 01:22 | 45.68031 | -74.01278 | 266 ft | 26 kts | 276° |
| 2026-04-17 01:22 | 45.68112 | -74.01479 | 267 ft | 22 kts | 314° |
| 2026-04-17 01:22 | 45.68221 | -74.01635 | 267 ft | 22 kts | 314° |
| 2026-04-17 01:23 | 45.68277 | -74.01785 | 267 ft | 14 kts | 245° |
| 2026-04-17 01:23 | 45.68256 | -74.01900 | 267 ft | 12 kts | 317° |
| 2026-04-17 01:23 | 45.68313 | -74.01984 | 268 ft | 12 kts | 306° |
| 2026-04-17 01:23 | 45.68317 | -74.02073 | 268 ft | 12 kts | 185° |
| 2026-04-17 01:24 | 45.68299 | -74.02058 | 268 ft | 0 kts | 133° |
| 2026-04-17 01:25 | 45.68290 | -74.02047 | 268 ft | 6 kts | 145° |
| 2026-04-17 01:25 | 45.68258 | -74.02073 | 268 ft | 6 kts | 229° |
| 2026-04-17 01:25 | 45.68227 | -74.02093 | 268 ft | 0 kts | 189° |